Grawn, Michigan
Current Conditions -  °F | °C
As of 11:53 AM on Wednesday 26 Nov 2014 (Local Time) from KTVC Reporting Station
Overcast Overcast  
Wind Chill: 29°   Ceiling: 3000
Heat Index: 29°   Visibility: 10mi
Dew Point: 22°   Wind: 3mph
Humidity: 75%   Direction: 120°ESE
Pressure: 30.16"   Gusts: NA
Location:  44.66°N, 85.69°W
Report Text: KTVC 261653Z 12003KT 10SM OVC030 M02/M06 A3016 RMK AO2 SLP223 T10171056
Loading
Personal Weather Stations






























Interactive Weather Map New forecast layout! Learn more

10-Day Weather Forecast

Advertisements
Track Severe Weather on mobile